Главная страница
METAR-TAF:

METAR-TAF

Аэропорты :

Элефтериос Венизелос

Афины, Греция

широта: 37-56N, долгота: 023-56E, высота над уровнем моря: 94 м

Текущие метеонаблюдения

Эта сводка был подготовлена 15 минут назад, в 13:20 UTC
Ветер 19 Узел от северо-восточный
Температура 30°C
Влажность 40%
Давление 1011 hPa
Видимость 10 км и более
Нет облачности ниже 1500 м, и нет кучево-дождевой облачности

METAR: LGAV 141320Z 05019KT CAVOK 30/15 Q1011 NOSIG

Время: 16:35 (13:35 UTC)

Прогноз

Эта сводка был подготовлена 2 часа и 35 минут назад, в 11:00 UTC
Прогноз действительный с 14-го 12 UTC до 15-го 12 UTC
Ветер 15 Узел от северный
Видимость 10 км и более
небольшая облачность на высоте 2500 фута
временами
С 14-го 12 UTC до 14-го 15 UTC
Ветер 15 Узел от северный с порывами до 25 Узел
временами
С 14-го 21 UTC до 15-го 03 UTC
Ветер 10 Узел от северно-северо-западный

TAF: LGAV 141100Z 1412/1512 01015KT 9999 FEW025 TEMPO 1412/1415 01015G25KT TEMPO 1421/1503 33010KT

Метеонаблюдения и прогнозы для более 4000 аэропортов (сводки METAR и TAF).

Имеющиеся станции представлены на карте желтыми и красными точками.

Чтобы увидеть название станции, наведите на нее мышь.

Затем щелкните, чтобы увидеть метеонаблюдения и метеопрогнозы.

Управление картой: чтобы увеличить масштаб, щелкните зеленые кнопки с черным крестиком; чтобы уменьшить масштаб, щелкните зеленую кнопку с тире; для просмотра соседних карт щелкайте зеленые стрелки.


METAR-TAF: